<?xml version="1.0" encoding="UTF-8" standalone="no" ?>
<gpx xmlns="http://www.topografix.com/GPX/1/1" xmlns:xsi="http://www.w3.org/2001/XMLSchema-instance" xsi:schemaLocation="http://www.topografix.com/GPX/1/1 http://www.topografix.com/GPX/1/1/gpx.xsd" version="1.1" creator="VisuGPX - https://www.visugpx.com">
  <metadata>
    <name>Campagne et bois P.S.G.</name>
  </metadata>
  <trk>
    <name><![CDATA[Campagne et bois autour de Plogastel-Saint-Germain_1]]></name>
    <extensions>
      <line xmlns="http://www.topografix.com/GPX/gpx_style/0/2">
        <color>0000FF</color>
        <width>4</width>
      </line>
    </extensions>
    <trkseg>
      <trkpt lat="47.97984" lon="-4.27318">
        <ele>79</ele>
        <time>2026-05-08T21:53:10.000Z</time>
      </trkpt>
      <trkpt lat="47.97956" lon="-4.27275">
        <ele>79</ele>
        <time>2026-05-08T21:53:56.000Z</time>
      </trkpt>
      <trkpt lat="47.97949" lon="-4.27201">
        <ele>81</ele>
        <time>2026-05-08T21:55:14.000Z</time>
      </trkpt>
      <trkpt lat="47.97947" lon="-4.2712">
        <ele>85</ele>
        <time>2026-05-08T21:56:57.000Z</time>
      </trkpt>
      <trkpt lat="47.97991" lon="-4.26993">
        <ele>91</ele>
        <time>2026-05-08T21:59:49.000Z</time>
      </trkpt>
      <trkpt lat="47.97995" lon="-4.26978">
        <ele>92</ele>
        <time>2026-05-08T22:00:11.000Z</time>
      </trkpt>
      <trkpt lat="47.98023" lon="-4.26922">
        <ele>95</ele>
        <time>2026-05-08T22:01:36.000Z</time>
      </trkpt>
      <trkpt lat="47.97957" lon="-4.26885">
        <ele>95</ele>
        <time>2026-05-08T22:02:57.000Z</time>
      </trkpt>
      <trkpt lat="47.97931" lon="-4.26866">
        <ele>95</ele>
        <time>2026-05-08T22:03:30.000Z</time>
      </trkpt>
      <trkpt lat="47.97866" lon="-4.26779">
        <ele>93</ele>
        <time>2026-05-08T22:05:10.000Z</time>
      </trkpt>
      <trkpt lat="47.97887" lon="-4.26714">
        <ele>95</ele>
        <time>2026-05-08T22:06:26.000Z</time>
      </trkpt>
      <trkpt lat="47.97912" lon="-4.26733">
        <ele>95</ele>
        <time>2026-05-08T22:06:59.000Z</time>
      </trkpt>
      <trkpt lat="47.97953" lon="-4.26751">
        <ele>95</ele>
        <time>2026-05-08T22:07:48.000Z</time>
      </trkpt>
      <trkpt lat="47.97999" lon="-4.26782">
        <ele>95</ele>
        <time>2026-05-08T22:08:45.000Z</time>
      </trkpt>
      <trkpt lat="47.98046" lon="-4.26804">
        <ele>97</ele>
        <time>2026-05-08T22:10:02.000Z</time>
      </trkpt>
      <trkpt lat="47.98071" lon="-4.26699">
        <ele>90</ele>
        <time>2026-05-08T22:11:27.000Z</time>
      </trkpt>
      <trkpt lat="47.98119" lon="-4.26613">
        <ele>84</ele>
        <time>2026-05-08T22:12:53.000Z</time>
      </trkpt>
      <trkpt lat="47.98157" lon="-4.2662">
        <ele>83</ele>
        <time>2026-05-08T22:13:36.000Z</time>
      </trkpt>
      <trkpt lat="47.98186" lon="-4.26649">
        <ele>82</ele>
        <time>2026-05-08T22:14:16.000Z</time>
      </trkpt>
      <trkpt lat="47.98212" lon="-4.26667">
        <ele>81</ele>
        <time>2026-05-08T22:14:49.000Z</time>
      </trkpt>
      <trkpt lat="47.98229" lon="-4.26672">
        <ele>81</ele>
        <time>2026-05-08T22:15:08.000Z</time>
      </trkpt>
      <trkpt lat="47.98219" lon="-4.26987">
        <ele>104</ele>
        <time>2026-05-08T22:23:07.000Z</time>
      </trkpt>
      <trkpt lat="47.98217" lon="-4.27013">
        <ele>104</ele>
        <time>2026-05-08T22:23:26.000Z</time>
      </trkpt>
      <trkpt lat="47.98227" lon="-4.2706">
        <ele>104</ele>
        <time>2026-05-08T22:24:04.000Z</time>
      </trkpt>
      <trkpt lat="47.98227" lon="-4.27094">
        <ele>105</ele>
        <time>2026-05-08T22:24:40.000Z</time>
      </trkpt>
      <trkpt lat="47.98249" lon="-4.27099">
        <ele>106</ele>
        <time>2026-05-08T22:25:16.000Z</time>
      </trkpt>
      <trkpt lat="47.98267" lon="-4.27096">
        <ele>108</ele>
        <time>2026-05-08T22:25:57.000Z</time>
      </trkpt>
      <trkpt lat="47.98291" lon="-4.27102">
        <ele>109</ele>
        <time>2026-05-08T22:26:36.000Z</time>
      </trkpt>
      <trkpt lat="47.98333" lon="-4.2713">
        <ele>112</ele>
        <time>2026-05-08T22:27:59.000Z</time>
      </trkpt>
      <trkpt lat="47.98362" lon="-4.27087">
        <ele>113</ele>
        <time>2026-05-08T22:28:56.000Z</time>
      </trkpt>
      <trkpt lat="47.98399" lon="-4.27091">
        <ele>114</ele>
        <time>2026-05-08T22:29:50.000Z</time>
      </trkpt>
      <trkpt lat="47.98529" lon="-4.27155">
        <ele>105</ele>
        <time>2026-05-08T22:32:26.000Z</time>
      </trkpt>
      <trkpt lat="47.98552" lon="-4.27138">
        <ele>102</ele>
        <time>2026-05-08T22:32:55.000Z</time>
      </trkpt>
      <trkpt lat="47.98581" lon="-4.27076">
        <ele>99</ele>
        <time>2026-05-08T22:33:52.000Z</time>
      </trkpt>
      <trkpt lat="47.98585" lon="-4.27035">
        <ele>98</ele>
        <time>2026-05-08T22:34:24.000Z</time>
      </trkpt>
      <trkpt lat="47.98621" lon="-4.26973">
        <ele>100</ele>
        <time>2026-05-08T22:35:47.000Z</time>
      </trkpt>
      <trkpt lat="47.98708" lon="-4.26835">
        <ele>109</ele>
        <time>2026-05-08T22:39:45.000Z</time>
      </trkpt>
      <trkpt lat="47.98789" lon="-4.26875">
        <ele>110</ele>
        <time>2026-05-08T22:41:32.000Z</time>
      </trkpt>
      <trkpt lat="47.98931" lon="-4.26926">
        <ele>111</ele>
        <time>2026-05-08T22:44:30.000Z</time>
      </trkpt>
      <trkpt lat="47.98941" lon="-4.26722">
        <ele>122</ele>
        <time>2026-05-08T22:49:00.000Z</time>
      </trkpt>
      <trkpt lat="47.98945" lon="-4.2662">
        <ele>124</ele>
        <time>2026-05-08T22:50:39.000Z</time>
      </trkpt>
      <trkpt lat="47.99" lon="-4.26507">
        <ele>126</ele>
        <time>2026-05-08T22:52:47.000Z</time>
      </trkpt>
      <trkpt lat="47.99033" lon="-4.26464">
        <ele>125</ele>
        <time>2026-05-08T22:53:37.000Z</time>
      </trkpt>
      <trkpt lat="47.99166" lon="-4.2657">
        <ele>121</ele>
        <time>2026-05-08T22:56:29.000Z</time>
      </trkpt>
      <trkpt lat="47.99095" lon="-4.26879">
        <ele>114</ele>
        <time>2026-05-08T23:00:39.000Z</time>
      </trkpt>
      <trkpt lat="47.9908" lon="-4.26946">
        <ele>114</ele>
        <time>2026-05-08T23:01:33.000Z</time>
      </trkpt>
      <trkpt lat="47.99112" lon="-4.26939">
        <ele>115</ele>
        <time>2026-05-08T23:02:21.000Z</time>
      </trkpt>
      <trkpt lat="47.9927" lon="-4.26846">
        <ele>119</ele>
        <time>2026-05-08T23:06:16.000Z</time>
      </trkpt>
      <trkpt lat="47.99365" lon="-4.26824">
        <ele>123</ele>
        <time>2026-05-08T23:08:48.000Z</time>
      </trkpt>
      <trkpt lat="47.99473" lon="-4.26819">
        <ele>123</ele>
        <time>2026-05-08T23:10:51.000Z</time>
      </trkpt>
      <trkpt lat="47.99479" lon="-4.2678">
        <ele>122</ele>
        <time>2026-05-08T23:11:21.000Z</time>
      </trkpt>
      <trkpt lat="47.99501" lon="-4.26713">
        <ele>120</ele>
        <time>2026-05-08T23:12:18.000Z</time>
      </trkpt>
      <trkpt lat="47.99512" lon="-4.26642">
        <ele>121</ele>
        <time>2026-05-08T23:13:24.000Z</time>
      </trkpt>
      <trkpt lat="47.99513" lon="-4.26643">
        <ele>121</ele>
        <time>2026-05-08T23:13:25.000Z</time>
      </trkpt>
      <trkpt lat="47.99517" lon="-4.26638">
        <ele>121</ele>
        <time>2026-05-08T23:13:31.000Z</time>
      </trkpt>
      <trkpt lat="47.99521" lon="-4.26634">
        <ele>122</ele>
        <time>2026-05-08T23:13:47.000Z</time>
      </trkpt>
      <trkpt lat="47.99534" lon="-4.26642">
        <ele>123</ele>
        <time>2026-05-08T23:14:13.000Z</time>
      </trkpt>
      <trkpt lat="47.99544" lon="-4.26656">
        <ele>124</ele>
        <time>2026-05-08T23:14:39.000Z</time>
      </trkpt>
      <trkpt lat="47.99556" lon="-4.26662">
        <ele>124</ele>
        <time>2026-05-08T23:14:53.000Z</time>
      </trkpt>
      <trkpt lat="47.99597" lon="-4.26663">
        <ele>126</ele>
        <time>2026-05-08T23:16:01.000Z</time>
      </trkpt>
      <trkpt lat="47.99602" lon="-4.26668">
        <ele>126</ele>
        <time>2026-05-08T23:16:08.000Z</time>
      </trkpt>
      <trkpt lat="47.99609" lon="-4.2672">
        <ele>125</ele>
        <time>2026-05-08T23:16:49.000Z</time>
      </trkpt>
      <trkpt lat="47.99617" lon="-4.2674">
        <ele>125</ele>
        <time>2026-05-08T23:17:07.000Z</time>
      </trkpt>
      <trkpt lat="47.99631" lon="-4.26761">
        <ele>126</ele>
        <time>2026-05-08T23:17:39.000Z</time>
      </trkpt>
      <trkpt lat="47.99689" lon="-4.26823">
        <ele>130</ele>
        <time>2026-05-08T23:19:42.000Z</time>
      </trkpt>
      <trkpt lat="47.99799" lon="-4.26922">
        <ele>137</ele>
        <time>2026-05-08T23:23:21.000Z</time>
      </trkpt>
      <trkpt lat="47.99807" lon="-4.26934">
        <ele>137</ele>
        <time>2026-05-08T23:23:33.000Z</time>
      </trkpt>
      <trkpt lat="47.99819" lon="-4.26975">
        <ele>137</ele>
        <time>2026-05-08T23:24:08.000Z</time>
      </trkpt>
      <trkpt lat="47.99846" lon="-4.27104">
        <ele>136</ele>
        <time>2026-05-08T23:25:51.000Z</time>
      </trkpt>
      <trkpt lat="47.99859" lon="-4.27097">
        <ele>136</ele>
        <time>2026-05-08T23:26:07.000Z</time>
      </trkpt>
      <trkpt lat="47.99865" lon="-4.27098">
        <ele>137</ele>
        <time>2026-05-08T23:26:25.000Z</time>
        <extensions>
          <visugpx:TrkExtension xmlns:visugpx="https://www.visugpx.com/editgpx/">
            <visugpx:node>1</visugpx:node>
            </visugpx:TrkExtension>
        </extensions>
      </trkpt>
      <trkpt lat="47.99865" lon="-4.27098">
        <ele>137</ele>
        <time>2026-05-08T19:42:20.000Z</time>
        <extensions>
          <visugpx:TrkExtension xmlns:visugpx="https://www.visugpx.com/editgpx/">
            <visugpx:node>2</visugpx:node>
            </visugpx:TrkExtension>
        </extensions>
      </trkpt>
      <trkpt lat="47.99859" lon="-4.27097">
        <ele>136</ele>
        <time>2026-05-08T19:42:28.000Z</time>
      </trkpt>
      <trkpt lat="47.99846" lon="-4.27104">
        <ele>136</ele>
        <time>2026-05-08T19:42:44.000Z</time>
      </trkpt>
      <trkpt lat="47.99853" lon="-4.27133">
        <ele>135</ele>
        <time>2026-05-08T19:43:08.000Z</time>
      </trkpt>
      <trkpt lat="47.99816" lon="-4.27159">
        <ele>134</ele>
        <time>2026-05-08T19:43:54.000Z</time>
      </trkpt>
      <trkpt lat="47.9976" lon="-4.2719">
        <ele>132</ele>
        <time>2026-05-08T19:45:02.000Z</time>
      </trkpt>
      <trkpt lat="47.99785" lon="-4.27216">
        <ele>131</ele>
        <time>2026-05-08T19:45:37.000Z</time>
      </trkpt>
      <trkpt lat="47.99805" lon="-4.27226">
        <ele>131</ele>
        <time>2026-05-08T19:46:01.000Z</time>
      </trkpt>
      <trkpt lat="47.99807" lon="-4.2724">
        <ele>131</ele>
        <time>2026-05-08T19:46:12.000Z</time>
      </trkpt>
      <trkpt lat="47.99806" lon="-4.27241">
        <ele>131</ele>
        <time>2026-05-08T19:46:13.000Z</time>
      </trkpt>
      <trkpt lat="47.99803" lon="-4.27302">
        <ele>129</ele>
        <time>2026-05-08T19:47:00.000Z</time>
      </trkpt>
      <trkpt lat="47.99805" lon="-4.27351">
        <ele>127</ele>
        <time>2026-05-08T19:47:38.000Z</time>
      </trkpt>
      <trkpt lat="47.99796" lon="-4.27375">
        <ele>126</ele>
        <time>2026-05-08T19:47:59.000Z</time>
      </trkpt>
      <trkpt lat="47.99763" lon="-4.27383">
        <ele>125</ele>
        <time>2026-05-08T19:48:38.000Z</time>
      </trkpt>
      <trkpt lat="47.99746" lon="-4.27386">
        <ele>124</ele>
        <time>2026-05-08T19:48:58.000Z</time>
      </trkpt>
      <trkpt lat="47.99726" lon="-4.27381">
        <ele>125</ele>
        <time>2026-05-08T19:49:32.000Z</time>
      </trkpt>
      <trkpt lat="47.997" lon="-4.27447">
        <ele>122</ele>
        <time>2026-05-08T19:50:30.000Z</time>
      </trkpt>
      <trkpt lat="47.99696" lon="-4.27479">
        <ele>120</ele>
        <time>2026-05-08T19:50:55.000Z</time>
      </trkpt>
      <trkpt lat="47.99688" lon="-4.27562">
        <ele>115</ele>
        <time>2026-05-08T19:52:00.000Z</time>
      </trkpt>
      <trkpt lat="47.99679" lon="-4.27618">
        <ele>114</ele>
        <time>2026-05-08T19:52:44.000Z</time>
      </trkpt>
      <trkpt lat="47.99646" lon="-4.27592">
        <ele>113</ele>
        <time>2026-05-08T19:53:27.000Z</time>
      </trkpt>
      <trkpt lat="47.99614" lon="-4.2761">
        <ele>115</ele>
        <time>2026-05-08T19:54:27.000Z</time>
      </trkpt>
      <trkpt lat="47.99589" lon="-4.27683">
        <ele>120</ele>
        <time>2026-05-08T19:56:21.000Z</time>
      </trkpt>
      <trkpt lat="47.9956" lon="-4.27756">
        <ele>122</ele>
        <time>2026-05-08T19:57:47.000Z</time>
      </trkpt>
      <trkpt lat="47.99529" lon="-4.27906">
        <ele>122</ele>
        <time>2026-05-08T19:59:48.000Z</time>
      </trkpt>
      <trkpt lat="47.99488" lon="-4.27998">
        <ele>120</ele>
        <time>2026-05-08T20:01:12.000Z</time>
      </trkpt>
      <trkpt lat="47.99422" lon="-4.28116">
        <ele>116</ele>
        <time>2026-05-08T20:03:10.000Z</time>
      </trkpt>
      <trkpt lat="47.99366" lon="-4.28232">
        <ele>110</ele>
        <time>2026-05-08T20:04:59.000Z</time>
      </trkpt>
      <trkpt lat="47.9935" lon="-4.28217">
        <ele>110</ele>
        <time>2026-05-08T20:05:21.000Z</time>
      </trkpt>
      <trkpt lat="47.99343" lon="-4.28165">
        <ele>112</ele>
        <time>2026-05-08T20:06:22.000Z</time>
      </trkpt>
      <trkpt lat="47.99325" lon="-4.2817">
        <ele>109</ele>
        <time>2026-05-08T20:06:43.000Z</time>
      </trkpt>
      <trkpt lat="47.99305" lon="-4.28166">
        <ele>106</ele>
        <time>2026-05-08T20:07:06.000Z</time>
      </trkpt>
      <trkpt lat="47.99281" lon="-4.28062">
        <ele>108</ele>
        <time>2026-05-08T20:08:51.000Z</time>
      </trkpt>
      <trkpt lat="47.99279" lon="-4.27962">
        <ele>109</ele>
        <time>2026-05-08T20:10:18.000Z</time>
      </trkpt>
      <trkpt lat="47.99297" lon="-4.27833">
        <ele>109</ele>
        <time>2026-05-08T20:11:59.000Z</time>
      </trkpt>
      <trkpt lat="47.99309" lon="-4.27764">
        <ele>110</ele>
        <time>2026-05-08T20:13:04.000Z</time>
      </trkpt>
      <trkpt lat="47.99293" lon="-4.27669">
        <ele>112</ele>
        <time>2026-05-08T20:14:40.000Z</time>
      </trkpt>
      <trkpt lat="47.99292" lon="-4.27597">
        <ele>114</ele>
        <time>2026-05-08T20:15:56.000Z</time>
      </trkpt>
      <trkpt lat="47.99297" lon="-4.27491">
        <ele>119</ele>
        <time>2026-05-08T20:18:09.000Z</time>
      </trkpt>
      <trkpt lat="47.99295" lon="-4.27421">
        <ele>121</ele>
        <time>2026-05-08T20:19:23.000Z</time>
      </trkpt>
      <trkpt lat="47.99318" lon="-4.27332">
        <ele>124</ele>
        <time>2026-05-08T20:21:07.000Z</time>
      </trkpt>
      <trkpt lat="47.99232" lon="-4.27309">
        <ele>123</ele>
        <time>2026-05-08T20:22:47.000Z</time>
      </trkpt>
      <trkpt lat="47.99172" lon="-4.27259">
        <ele>121</ele>
        <time>2026-05-08T20:24:06.000Z</time>
      </trkpt>
      <trkpt lat="47.99114" lon="-4.27223">
        <ele>119</ele>
        <time>2026-05-08T20:25:19.000Z</time>
      </trkpt>
      <trkpt lat="47.99033" lon="-4.27176">
        <ele>117</ele>
        <time>2026-05-08T20:26:58.000Z</time>
      </trkpt>
      <trkpt lat="47.99021" lon="-4.27172">
        <ele>117</ele>
        <time>2026-05-08T20:27:12.000Z</time>
      </trkpt>
      <trkpt lat="47.99006" lon="-4.27187">
        <ele>116</ele>
        <time>2026-05-08T20:27:33.000Z</time>
      </trkpt>
      <trkpt lat="47.98988" lon="-4.27243">
        <ele>113</ele>
        <time>2026-05-08T20:28:20.000Z</time>
      </trkpt>
      <trkpt lat="47.98965" lon="-4.27317">
        <ele>111</ele>
        <time>2026-05-08T20:29:22.000Z</time>
      </trkpt>
      <trkpt lat="47.98945" lon="-4.27376">
        <ele>110</ele>
        <time>2026-05-08T20:30:13.000Z</time>
      </trkpt>
      <trkpt lat="47.98913" lon="-4.27356">
        <ele>106</ele>
        <time>2026-05-08T20:30:53.000Z</time>
      </trkpt>
      <trkpt lat="47.98878" lon="-4.27314">
        <ele>104</ele>
        <time>2026-05-08T20:31:44.000Z</time>
      </trkpt>
      <trkpt lat="47.98844" lon="-4.27294">
        <ele>103</ele>
        <time>2026-05-08T20:32:26.000Z</time>
      </trkpt>
      <trkpt lat="47.98804" lon="-4.27325">
        <ele>103</ele>
        <time>2026-05-08T20:33:17.000Z</time>
      </trkpt>
      <trkpt lat="47.98778" lon="-4.27338">
        <ele>104</ele>
        <time>2026-05-08T20:33:59.000Z</time>
      </trkpt>
      <trkpt lat="47.9869" lon="-4.27283">
        <ele>103</ele>
        <time>2026-05-08T20:35:48.000Z</time>
      </trkpt>
      <trkpt lat="47.98621" lon="-4.27241">
        <ele>103</ele>
        <time>2026-05-08T20:37:13.000Z</time>
      </trkpt>
      <trkpt lat="47.98549" lon="-4.27192">
        <ele>104</ele>
        <time>2026-05-08T20:38:54.000Z</time>
      </trkpt>
      <trkpt lat="47.98527" lon="-4.27265">
        <ele>112</ele>
        <time>2026-05-08T20:41:18.000Z</time>
      </trkpt>
      <trkpt lat="47.98497" lon="-4.27345">
        <ele>112</ele>
        <time>2026-05-08T20:42:28.000Z</time>
      </trkpt>
      <trkpt lat="47.9849" lon="-4.27366">
        <ele>112</ele>
        <time>2026-05-08T20:42:46.000Z</time>
      </trkpt>
      <trkpt lat="47.98456" lon="-4.27383">
        <ele>111</ele>
        <time>2026-05-08T20:43:27.000Z</time>
      </trkpt>
      <trkpt lat="47.98449" lon="-4.27421">
        <ele>109</ele>
        <time>2026-05-08T20:43:57.000Z</time>
      </trkpt>
      <trkpt lat="47.98414" lon="-4.2749">
        <ele>100</ele>
        <time>2026-05-08T20:45:04.000Z</time>
      </trkpt>
      <trkpt lat="47.98382" lon="-4.27544">
        <ele>93</ele>
        <time>2026-05-08T20:45:59.000Z</time>
      </trkpt>
      <trkpt lat="47.98366" lon="-4.276">
        <ele>85</ele>
        <time>2026-05-08T20:46:46.000Z</time>
      </trkpt>
      <trkpt lat="47.98344" lon="-4.27668">
        <ele>78</ele>
        <time>2026-05-08T20:47:43.000Z</time>
      </trkpt>
      <trkpt lat="47.98344" lon="-4.27692">
        <ele>77</ele>
        <time>2026-05-08T20:48:02.000Z</time>
      </trkpt>
      <trkpt lat="47.98366" lon="-4.27719">
        <ele>77</ele>
        <time>2026-05-08T20:48:34.000Z</time>
      </trkpt>
      <trkpt lat="47.98333" lon="-4.2779">
        <ele>79</ele>
        <time>2026-05-08T20:50:01.000Z</time>
      </trkpt>
      <trkpt lat="47.9834" lon="-4.27806">
        <ele>80</ele>
        <time>2026-05-08T20:50:27.000Z</time>
      </trkpt>
      <trkpt lat="47.98309" lon="-4.27828">
        <ele>84</ele>
        <time>2026-05-08T20:51:48.000Z</time>
      </trkpt>
      <trkpt lat="47.98324" lon="-4.27913">
        <ele>89</ele>
        <time>2026-05-08T20:53:47.000Z</time>
      </trkpt>
      <trkpt lat="47.98347" lon="-4.27968">
        <ele>91</ele>
        <time>2026-05-08T20:54:58.000Z</time>
      </trkpt>
      <trkpt lat="47.98367" lon="-4.27993">
        <ele>90</ele>
        <time>2026-05-08T20:55:28.000Z</time>
      </trkpt>
      <trkpt lat="47.98407" lon="-4.28078">
        <ele>93</ele>
        <time>2026-05-08T20:57:18.000Z</time>
      </trkpt>
      <trkpt lat="47.98399" lon="-4.28179">
        <ele>97</ele>
        <time>2026-05-08T20:59:17.000Z</time>
      </trkpt>
      <trkpt lat="47.98425" lon="-4.28257">
        <ele>92</ele>
        <time>2026-05-08T21:00:23.000Z</time>
      </trkpt>
      <trkpt lat="47.98438" lon="-4.28306">
        <ele>89</ele>
        <time>2026-05-08T21:01:04.000Z</time>
      </trkpt>
      <trkpt lat="47.98443" lon="-4.28357">
        <ele>87</ele>
        <time>2026-05-08T21:01:44.000Z</time>
      </trkpt>
      <trkpt lat="47.98434" lon="-4.28421">
        <ele>86</ele>
        <time>2026-05-08T21:02:34.000Z</time>
      </trkpt>
      <trkpt lat="47.98377" lon="-4.2851">
        <ele>89</ele>
        <time>2026-05-08T21:04:39.000Z</time>
      </trkpt>
      <trkpt lat="47.98386" lon="-4.28513">
        <ele>88</ele>
        <time>2026-05-08T21:04:50.000Z</time>
      </trkpt>
      <trkpt lat="47.98374" lon="-4.28629">
        <ele>91</ele>
        <time>2026-05-08T21:06:51.000Z</time>
      </trkpt>
      <trkpt lat="47.98358" lon="-4.28709">
        <ele>95</ele>
        <time>2026-05-08T21:08:36.000Z</time>
      </trkpt>
      <trkpt lat="47.98382" lon="-4.28748">
        <ele>93</ele>
        <time>2026-05-08T21:09:17.000Z</time>
      </trkpt>
      <trkpt lat="47.98421" lon="-4.28777">
        <ele>90</ele>
        <time>2026-05-08T21:10:07.000Z</time>
      </trkpt>
      <trkpt lat="47.98425" lon="-4.28834">
        <ele>91</ele>
        <time>2026-05-08T21:11:01.000Z</time>
      </trkpt>
      <trkpt lat="47.98381" lon="-4.28843">
        <ele>97</ele>
        <time>2026-05-08T21:12:54.000Z</time>
      </trkpt>
      <trkpt lat="47.98313" lon="-4.28846">
        <ele>107</ele>
        <time>2026-05-08T21:15:55.000Z</time>
      </trkpt>
      <trkpt lat="47.98305" lon="-4.28858">
        <ele>109</ele>
        <time>2026-05-08T21:16:29.000Z</time>
      </trkpt>
      <trkpt lat="47.98277" lon="-4.28853">
        <ele>111</ele>
        <time>2026-05-08T21:17:22.000Z</time>
      </trkpt>
      <trkpt lat="47.98255" lon="-4.28836">
        <ele>113</ele>
        <time>2026-05-08T21:18:11.000Z</time>
      </trkpt>
      <trkpt lat="47.98237" lon="-4.28818">
        <ele>114</ele>
        <time>2026-05-08T21:18:46.000Z</time>
      </trkpt>
      <trkpt lat="47.98172" lon="-4.28818">
        <ele>114</ele>
        <time>2026-05-08T21:20:00.000Z</time>
      </trkpt>
      <trkpt lat="47.98102" lon="-4.28801">
        <ele>110</ele>
        <time>2026-05-08T21:21:21.000Z</time>
      </trkpt>
      <trkpt lat="47.98079" lon="-4.28784">
        <ele>108</ele>
        <time>2026-05-08T21:21:50.000Z</time>
      </trkpt>
      <trkpt lat="47.98061" lon="-4.28789">
        <ele>107</ele>
        <time>2026-05-08T21:22:12.000Z</time>
      </trkpt>
      <trkpt lat="47.98049" lon="-4.28757">
        <ele>105</ele>
        <time>2026-05-08T21:22:40.000Z</time>
      </trkpt>
      <trkpt lat="47.98033" lon="-4.28726">
        <ele>103</ele>
        <time>2026-05-08T21:23:09.000Z</time>
      </trkpt>
      <trkpt lat="47.98018" lon="-4.28701">
        <ele>100</ele>
        <time>2026-05-08T21:23:36.000Z</time>
      </trkpt>
      <trkpt lat="47.97971" lon="-4.28657">
        <ele>95</ele>
        <time>2026-05-08T21:24:40.000Z</time>
      </trkpt>
      <trkpt lat="47.97979" lon="-4.28612">
        <ele>93</ele>
        <time>2026-05-08T21:25:16.000Z</time>
      </trkpt>
      <trkpt lat="47.97974" lon="-4.28569">
        <ele>91</ele>
        <time>2026-05-08T21:25:49.000Z</time>
      </trkpt>
      <trkpt lat="47.98013" lon="-4.28495">
        <ele>88</ele>
        <time>2026-05-08T21:27:01.000Z</time>
      </trkpt>
      <trkpt lat="47.98123" lon="-4.28523">
        <ele>91</ele>
        <time>2026-05-08T21:29:40.000Z</time>
      </trkpt>
      <trkpt lat="47.98129" lon="-4.28339">
        <ele>101</ele>
        <time>2026-05-08T21:33:44.000Z</time>
      </trkpt>
      <trkpt lat="47.98151" lon="-4.28149">
        <ele>104</ele>
        <time>2026-05-08T21:36:42.000Z</time>
      </trkpt>
      <trkpt lat="47.98192" lon="-4.28143">
        <ele>106</ele>
        <time>2026-05-08T21:37:50.000Z</time>
      </trkpt>
      <trkpt lat="47.98193" lon="-4.28055">
        <ele>104</ele>
        <time>2026-05-08T21:38:57.000Z</time>
      </trkpt>
      <trkpt lat="47.98179" lon="-4.28009">
        <ele>102</ele>
        <time>2026-05-08T21:39:36.000Z</time>
      </trkpt>
      <trkpt lat="47.98167" lon="-4.28021">
        <ele>102</ele>
        <time>2026-05-08T21:39:53.000Z</time>
      </trkpt>
      <trkpt lat="47.98128" lon="-4.28005">
        <ele>101</ele>
        <time>2026-05-08T21:40:38.000Z</time>
      </trkpt>
      <trkpt lat="47.98118" lon="-4.27957">
        <ele>100</ele>
        <time>2026-05-08T21:41:17.000Z</time>
      </trkpt>
      <trkpt lat="47.98091" lon="-4.27921">
        <ele>98</ele>
        <time>2026-05-08T21:41:59.000Z</time>
      </trkpt>
      <trkpt lat="47.9807" lon="-4.27811">
        <ele>90</ele>
        <time>2026-05-08T21:43:27.000Z</time>
      </trkpt>
      <trkpt lat="47.98057" lon="-4.27699">
        <ele>86</ele>
        <time>2026-05-08T21:44:55.000Z</time>
      </trkpt>
      <trkpt lat="47.98057" lon="-4.276">
        <ele>81</ele>
        <time>2026-05-08T21:46:11.000Z</time>
      </trkpt>
      <trkpt lat="47.98031" lon="-4.27565">
        <ele>79</ele>
        <time>2026-05-08T21:46:51.000Z</time>
      </trkpt>
      <trkpt lat="47.97994" lon="-4.27546">
        <ele>71</ele>
        <time>2026-05-08T21:47:35.000Z</time>
      </trkpt>
      <trkpt lat="47.98018" lon="-4.27483">
        <ele>70</ele>
        <time>2026-05-08T21:48:31.000Z</time>
      </trkpt>
      <trkpt lat="47.98044" lon="-4.27407">
        <ele>70</ele>
        <time>2026-05-08T21:49:37.000Z</time>
      </trkpt>
      <trkpt lat="47.97986" lon="-4.27384">
        <ele>73</ele>
        <time>2026-05-08T21:51:17.000Z</time>
      </trkpt>
      <trkpt lat="47.97984" lon="-4.27318">
        <ele>79</ele>
        <time>2026-05-08T21:53:10.000Z</time>
        <extensions>
          <visugpx:TrkExtension xmlns:visugpx="https://www.visugpx.com/editgpx/">
            <visugpx:node>3</visugpx:node>
            </visugpx:TrkExtension>
        </extensions>
      </trkpt>
    </trkseg>
  </trk>
</gpx>